sensor_id;sensor_type;location;lat;lon;timestamp;temperature;humidity
1411;DHT22;700;51.906;8.404;2023-04-25T00:04:34;9.80;99.90
1411;DHT22;700;51.906;8.404;2023-04-25T00:09:35;10.00;99.90
1411;DHT22;700;51.906;8.404;2023-04-25T00:14:35;10.10;99.90
1411;DHT22;700;51.906;8.404;2023-04-25T00:19:36;10.10;99.90
1411;DHT22;700;51.906;8.404;2023-04-25T00:24:38;9.90;99.90
1411;DHT22;700;51.906;8.404;2023-04-25T00:29:38;10.10;99.90
1411;DHT22;700;51.906;8.404;2023-04-25T00:34:39;10.20;99.90
1411;DHT22;700;51.906;8.404;2023-04-25T00:39:40;10.20;99.90
1411;DHT22;700;51.906;8.404;2023-04-25T00:44:43;10.10;99.90
1411;DHT22;700;51.906;8.404;2023-04-25T00:49:45;10.10;99.90
1411;DHT22;700;51.906;8.404;2023-04-25T00:54:45;10.00;99.90
1411;DHT22;700;51.906;8.404;2023-04-25T00:59:51;10.10;99.90
1411;DHT22;700;51.906;8.404;2023-04-25T01:04:52;10.10;99.90
1411;DHT22;700;51.906;8.404;2023-04-25T01:09:55;10.00;99.90
1411;DHT22;700;51.906;8.404;2023-04-25T01:15:01;10.00;99.90
1411;DHT22;700;51.906;8.404;2023-04-25T01:20:05;9.90;99.90
1411;DHT22;700;51.906;8.404;2023-04-25T01:25:12;10.00;99.90
1411;DHT22;700;51.906;8.404;2023-04-25T01:30:13;9.80;99.90
1411;DHT22;700;51.906;8.404;2023-04-25T01:35:17;9.60;99.90
1411;DHT22;700;51.906;8.404;2023-04-25T01:40:18;9.70;99.90
1411;DHT22;700;51.906;8.404;2023-04-25T01:45:19;9.70;99.90
1411;DHT22;700;51.906;8.404;2023-04-25T01:50:20;9.70;99.90
1411;DHT22;700;51.906;8.404;2023-04-25T01:55:21;9.90;99.90
1411;DHT22;700;51.906;8.404;2023-04-25T02:00:22;9.90;99.90
1411;DHT22;700;51.906;8.404;2023-04-25T02:05:22;9.80;99.90
1411;DHT22;700;51.906;8.404;2023-04-25T02:10:28;9.90;99.90
1411;DHT22;700;51.906;8.404;2023-04-25T02:15:28;10.00;99.90
1411;DHT22;700;51.906;8.404;2023-04-25T02:20:29;10.10;99.90
1411;DHT22;700;51.906;8.404;2023-04-25T02:25:30;10.20;99.90
1411;DHT22;700;51.906;8.404;2023-04-25T02:30:34;10.30;99.90
1411;DHT22;700;51.906;8.404;2023-04-25T02:35:35;10.50;99.90
1411;DHT22;700;51.906;8.404;2023-04-25T02:40:36;10.60;99.90
1411;DHT22;700;51.906;8.404;2023-04-25T02:45:36;10.50;99.90
1411;DHT22;700;51.906;8.404;2023-04-25T02:50:38;10.50;99.90
1411;DHT22;700;51.906;8.404;2023-04-25T02:55:41;10.40;99.90
1411;DHT22;700;51.906;8.404;2023-04-25T03:00:41;10.40;99.90
1411;DHT22;700;51.906;8.404;2023-04-25T03:05:44;10.60;99.90
1411;DHT22;700;51.906;8.404;2023-04-25T03:10:47;10.50;99.90
1411;DHT22;700;51.906;8.404;2023-04-25T03:15:48;10.60;99.90
1411;DHT22;700;51.906;8.404;2023-04-25T03:20:48;10.70;99.90
1411;DHT22;700;51.906;8.404;2023-04-25T03:25:49;10.70;99.90
1411;DHT22;700;51.906;8.404;2023-04-25T03:30:49;10.80;99.90
1411;DHT22;700;51.906;8.404;2023-04-25T03:35:50;10.90;99.90
1411;DHT22;700;51.906;8.404;2023-04-25T03:40:54;10.90;99.90
1411;DHT22;700;51.906;8.404;2023-04-25T03:45:56;11.00;99.90
1411;DHT22;700;51.906;8.404;2023-04-25T03:50:57;10.90;99.90
1411;DHT22;700;51.906;8.404;2023-04-25T03:55:57;11.00;99.90
1411;DHT22;700;51.906;8.404;2023-04-25T04:00:58;11.00;99.90
1411;DHT22;700;51.906;8.404;2023-04-25T04:06:04;11.10;99.90
1411;DHT22;700;51.906;8.404;2023-04-25T04:11:08;11.10;99.90
1411;DHT22;700;51.906;8.404;2023-04-25T04:16:11;11.00;99.90
1411;DHT22;700;51.906;8.404;2023-04-25T04:21:14;11.00;99.90
1411;DHT22;700;51.906;8.404;2023-04-25T04:26:15;10.90;99.90
1411;DHT22;700;51.906;8.404;2023-04-25T04:31:17;10.90;99.90
1411;DHT22;700;51.906;8.404;2023-04-25T04:36:19;10.80;99.90
1411;DHT22;700;51.906;8.404;2023-04-25T04:41:22;10.70;99.90
1411;DHT22;700;51.906;8.404;2023-04-25T04:46:25;10.70;99.90
1411;DHT22;700;51.906;8.404;2023-04-25T04:51:26;10.80;99.90
1411;DHT22;700;51.906;8.404;2023-04-25T04:56:29;10.70;99.90
1411;DHT22;700;51.906;8.404;2023-04-25T05:01:31;10.70;99.90
1411;DHT22;700;51.906;8.404;2023-04-25T05:06:32;10.60;99.90
1411;DHT22;700;51.906;8.404;2023-04-25T05:11:34;10.70;99.90
1411;DHT22;700;51.906;8.404;2023-04-25T05:16:35;10.80;99.90
1411;DHT22;700;51.906;8.404;2023-04-25T05:21:36;10.90;99.90
1411;DHT22;700;51.906;8.404;2023-04-25T05:26:38;11.00;99.90
1411;DHT22;700;51.906;8.404;2023-04-25T05:31:41;11.00;99.90
1411;DHT22;700;51.906;8.404;2023-04-25T05:36:42;10.90;99.90
1411;DHT22;700;51.906;8.404;2023-04-25T05:41:45;11.00;99.90
1411;DHT22;700;51.906;8.404;2023-04-25T05:46:46;11.10;99.90
1411;DHT22;700;51.906;8.404;2023-04-25T05:51:46;11.30;99.90
1411;DHT22;700;51.906;8.404;2023-04-25T05:56:47;11.40;99.90
1411;DHT22;700;51.906;8.404;2023-04-25T06:01:50;11.50;99.90
1411;DHT22;700;51.906;8.404;2023-04-25T06:06:51;11.70;99.90
1411;DHT22;700;51.906;8.404;2023-04-25T06:11:54;11.80;99.90
1411;DHT22;700;51.906;8.404;2023-04-25T06:16:57;11.80;99.90
1411;DHT22;700;51.906;8.404;2023-04-25T06:21:58;12.00;99.90
1411;DHT22;700;51.906;8.404;2023-04-25T06:26:59;12.20;99.90
1411;DHT22;700;51.906;8.404;2023-04-25T06:32:00;12.30;99.90
1411;DHT22;700;51.906;8.404;2023-04-25T06:37:00;12.50;99.90
1411;DHT22;700;51.906;8.404;2023-04-25T06:42:03;12.40;99.90
1411;DHT22;700;51.906;8.404;2023-04-25T06:47:04;12.40;99.90
1411;DHT22;700;51.906;8.404;2023-04-25T06:52:05;12.50;99.90
1411;DHT22;700;51.906;8.404;2023-04-25T06:57:06;12.50;99.90
1411;DHT22;700;51.906;8.404;2023-04-25T07:02:09;12.80;99.90
1411;DHT22;700;51.906;8.404;2023-04-25T07:07:09;13.00;99.90
1411;DHT22;700;51.906;8.404;2023-04-25T07:12:12;13.20;99.90
1411;DHT22;700;51.906;8.404;2023-04-25T07:17:13;13.20;99.90
1411;DHT22;700;51.906;8.404;2023-04-25T07:22:13;13.50;99.90
1411;DHT22;700;51.906;8.404;2023-04-25T07:27:17;13.50;99.90
1411;DHT22;700;51.906;8.404;2023-04-25T07:32:22;13.70;99.90
1411;DHT22;700;51.906;8.404;2023-04-25T07:37:25;13.70;99.90
1411;DHT22;700;51.906;8.404;2023-04-25T07:42:26;13.80;99.90
1411;DHT22;700;51.906;8.404;2023-04-25T07:47:27;13.90;99.90
1411;DHT22;700;51.906;8.404;2023-04-25T07:52:28;14.20;99.90
1411;DHT22;700;51.906;8.404;2023-04-25T07:57:31;14.50;99.90
1411;DHT22;700;51.906;8.404;2023-04-25T08:02:34;14.70;99.90
1411;DHT22;700;51.906;8.404;2023-04-25T08:07:37;14.80;99.90
1411;DHT22;700;51.906;8.404;2023-04-25T08:12:40;15.00;99.90
1411;DHT22;700;51.906;8.404;2023-04-25T08:17:43;15.20;99.90
1411;DHT22;700;51.906;8.404;2023-04-25T08:22:44;15.30;99.90
1411;DHT22;700;51.906;8.404;2023-04-25T08:27:45;15.40;99.90
1411;DHT22;700;51.906;8.404;2023-04-25T08:32:45;16.00;99.90
1411;DHT22;700;51.906;8.404;2023-04-25T08:37:46;16.70;99.20
1411;DHT22;700;51.906;8.404;2023-04-25T08:42:50;17.40;97.10
1411;DHT22;700;51.906;8.404;2023-04-25T08:47:57;17.50;93.40
1411;DHT22;700;51.906;8.404;2023-04-25T08:53:00;17.10;91.80
1411;DHT22;700;51.906;8.404;2023-04-25T08:58:10;16.90;92.60
1411;DHT22;700;51.906;8.404;2023-04-25T09:03:11;16.90;91.60
1411;DHT22;700;51.906;8.404;2023-04-25T09:08:14;17.20;90.60
1411;DHT22;700;51.906;8.404;2023-04-25T09:13:25;18.20;90.00
1411;DHT22;700;51.906;8.404;2023-04-25T09:18:31;19.50;83.20
1411;DHT22;700;51.906;8.404;2023-04-25T09:23:44;20.50;77.40
1411;DHT22;700;51.906;8.404;2023-04-25T09:28:47;20.20;69.00
1411;DHT22;700;51.906;8.404;2023-04-25T09:33:48;20.60;66.50
1411;DHT22;700;51.906;8.404;2023-04-25T09:38:48;20.80;66.80
1411;DHT22;700;51.906;8.404;2023-04-25T09:43:49;20.80;60.20
1411;DHT22;700;51.906;8.404;2023-04-25T09:48:53;19.70;61.40
1411;DHT22;700;51.906;8.404;2023-04-25T09:53:54;19.70;66.90
1411;DHT22;700;51.906;8.404;2023-04-25T09:58:55;19.80;59.90
1411;DHT22;700;51.906;8.404;2023-04-25T10:04:00;18.90;61.80
1411;DHT22;700;51.906;8.404;2023-04-25T10:09:03;17.80;62.70
1411;DHT22;700;51.906;8.404;2023-04-25T10:14:04;17.40;63.80
1411;DHT22;700;51.906;8.404;2023-04-25T10:19:09;17.00;65.70
1411;DHT22;700;51.906;8.404;2023-04-25T10:24:15;16.50;65.30
1411;DHT22;700;51.906;8.404;2023-04-25T10:29:26;16.10;70.60
1411;DHT22;700;51.906;8.404;2023-04-25T10:34:40;16.10;68.80
1411;DHT22;700;51.906;8.404;2023-04-25T10:39:41;16.50;71.10
1411;DHT22;700;51.906;8.404;2023-04-25T10:45:01;16.70;68.40
1411;DHT22;700;51.906;8.404;2023-04-25T10:50:08;19.60;67.30
1411;DHT22;700;51.906;8.404;2023-04-25T10:55:13;25.30;55.90
1411;DHT22;700;51.906;8.404;2023-04-25T11:00:16;31.40;43.40
1411;DHT22;700;51.906;8.404;2023-04-25T11:10:32;33.80;28.30
1411;DHT22;700;51.906;8.404;2023-04-25T11:15:33;31.00;31.50
1411;DHT22;700;51.906;8.404;2023-04-25T11:20:34;32.50;28.80
1411;DHT22;700;51.906;8.404;2023-04-25T11:25:36;28.90;29.70
1411;DHT22;700;51.906;8.404;2023-04-25T11:30:37;25.50;34.50
1411;DHT22;700;51.906;8.404;2023-04-25T11:35:40;22.60;37.50
1411;DHT22;700;51.906;8.404;2023-04-25T11:40:41;22.70;38.90
1411;DHT22;700;51.906;8.404;2023-04-25T11:45:46;22.90;38.20
1411;DHT22;700;51.906;8.404;2023-04-25T11:50:47;22.80;37.40
1411;DHT22;700;51.906;8.404;2023-04-25T11:55:50;23.70;37.60
1411;DHT22;700;51.906;8.404;2023-04-25T12:00:51;24.40;37.90
1411;DHT22;700;51.906;8.404;2023-04-25T12:05:52;24.80;35.00
1411;DHT22;700;51.906;8.404;2023-04-25T12:10:53;23.60;37.70
1411;DHT22;700;51.906;8.404;2023-04-25T12:15:55;25.20;38.00
1411;DHT22;700;51.906;8.404;2023-04-25T12:20:59;30.60;33.70
1411;DHT22;700;51.906;8.404;2023-04-25T12:26:00;31.70;30.60
1411;DHT22;700;51.906;8.404;2023-04-25T12:31:04;28.20;31.20
1411;DHT22;700;51.906;8.404;2023-04-25T12:36:08;24.80;34.00
1411;DHT22;700;51.906;8.404;2023-04-25T12:41:15;23.30;36.50
1411;DHT22;700;51.906;8.404;2023-04-25T12:46:16;23.90;35.80
1411;DHT22;700;51.906;8.404;2023-04-25T12:51:19;24.50;36.30
1411;DHT22;700;51.906;8.404;2023-04-25T12:56:25;28.30;34.30
1411;DHT22;700;51.906;8.404;2023-04-25T13:01:29;30.50;30.60
1411;DHT22;700;51.906;8.404;2023-04-25T13:06:35;31.30;30.90
1411;DHT22;700;51.906;8.404;2023-04-25T13:11:43;33.40;28.30
1411;DHT22;700;51.906;8.404;2023-04-25T13:16:46;35.00;28.00
1411;DHT22;700;51.906;8.404;2023-04-25T13:21:51;35.30;27.30
1411;DHT22;700;51.906;8.404;2023-04-25T13:26:51;34.30;27.60
1411;DHT22;700;51.906;8.404;2023-04-25T13:31:52;30.30;28.10
1411;DHT22;700;51.906;8.404;2023-04-25T13:36:55;24.60;35.60
1411;DHT22;700;51.906;8.404;2023-04-25T13:41:58;21.30;40.10
1411;DHT22;700;51.906;8.404;2023-04-25T13:47:02;18.80;44.00
1411;DHT22;700;51.906;8.404;2023-04-25T13:52:08;17.30;45.90
1411;DHT22;700;51.906;8.404;2023-04-25T13:57:11;20.20;48.10
1411;DHT22;700;51.906;8.404;2023-04-25T14:02:14;24.50;41.90
1411;DHT22;700;51.906;8.404;2023-04-25T14:07:14;23.40;39.70
1411;DHT22;700;51.906;8.404;2023-04-25T14:12:18;20.60;40.70
1411;DHT22;700;51.906;8.404;2023-04-25T14:17:19;18.90;43.70
1411;DHT22;700;51.906;8.404;2023-04-25T14:22:20;17.90;45.40
1411;DHT22;700;51.906;8.404;2023-04-25T14:27:23;16.90;47.10
1411;DHT22;700;51.906;8.404;2023-04-25T14:32:24;16.30;48.60
1411;DHT22;700;51.906;8.404;2023-04-25T14:37:25;15.60;52.00
1411;DHT22;700;51.906;8.404;2023-04-25T14:42:26;14.70;61.50
1411;DHT22;700;51.906;8.404;2023-04-25T14:47:27;14.00;68.90
1411;DHT22;700;51.906;8.404;2023-04-25T14:52:28;13.30;81.90
1411;DHT22;700;51.906;8.404;2023-04-25T14:57:34;13.00;91.20
1411;DHT22;700;51.906;8.404;2023-04-25T15:02:37;12.80;94.10
1411;DHT22;700;51.906;8.404;2023-04-25T15:07:38;13.00;95.90
1411;DHT22;700;51.906;8.404;2023-04-25T15:12:42;13.30;96.10
1411;DHT22;700;51.906;8.404;2023-04-25T15:17:46;14.00;96.10
1411;DHT22;700;51.906;8.404;2023-04-25T15:22:47;14.40;95.20
1411;DHT22;700;51.906;8.404;2023-04-25T15:27:51;14.90;94.30
1411;DHT22;700;51.906;8.404;2023-04-25T15:32:52;15.60;94.30
1411;DHT22;700;51.906;8.404;2023-04-25T15:37:53;15.90;91.00
1411;DHT22;700;51.906;8.404;2023-04-25T15:42:54;15.60;88.70
1411;DHT22;700;51.906;8.404;2023-04-25T15:47:55;15.10;90.10
1411;DHT22;700;51.906;8.404;2023-04-25T15:52:59;14.50;89.50
1411;DHT22;700;51.906;8.404;2023-04-25T15:58:02;13.90;91.10
1411;DHT22;700;51.906;8.404;2023-04-25T16:03:02;13.30;92.50
1411;DHT22;700;51.906;8.404;2023-04-25T16:08:04;12.60;99.00
1411;DHT22;700;51.906;8.404;2023-04-25T16:13:05;12.30;99.90
1411;DHT22;700;51.906;8.404;2023-04-25T16:18:08;12.50;99.90
1411;DHT22;700;51.906;8.404;2023-04-25T16:23:08;12.60;99.90
1411;DHT22;700;51.906;8.404;2023-04-25T16:28:09;12.70;99.90
1411;DHT22;700;51.906;8.404;2023-04-25T16:33:11;12.60;99.90
1411;DHT22;700;51.906;8.404;2023-04-25T16:38:14;12.80;99.90
1411;DHT22;700;51.906;8.404;2023-04-25T16:43:16;13.00;99.90
1411;DHT22;700;51.906;8.404;2023-04-25T16:48:19;13.30;99.90
1411;DHT22;700;51.906;8.404;2023-04-25T16:53:26;13.30;99.90
1411;DHT22;700;51.906;8.404;2023-04-25T16:58:26;13.40;99.90
1411;DHT22;700;51.906;8.404;2023-04-25T17:03:28;13.80;99.90
1411;DHT22;700;51.906;8.404;2023-04-25T17:08:33;13.80;99.90
1411;DHT22;700;51.906;8.404;2023-04-25T17:13:35;13.70;99.90
1411;DHT22;700;51.906;8.404;2023-04-25T17:18:38;13.50;99.90
1411;DHT22;700;51.906;8.404;2023-04-25T17:23:41;13.60;99.30
1411;DHT22;700;51.906;8.404;2023-04-25T17:28:47;13.50;97.10
1411;DHT22;700;51.906;8.404;2023-04-25T17:33:48;13.50;94.50
1411;DHT22;700;51.906;8.404;2023-04-25T17:38:50;13.30;94.10
1411;DHT22;700;51.906;8.404;2023-04-25T17:43:53;13.00;94.00
1411;DHT22;700;51.906;8.404;2023-04-25T17:48:55;12.80;94.30
1411;DHT22;700;51.906;8.404;2023-04-25T17:53:59;12.50;95.10
1411;DHT22;700;51.906;8.404;2023-04-25T17:58:59;12.20;96.20
1411;DHT22;700;51.906;8.404;2023-04-25T18:04:03;11.80;96.60
1411;DHT22;700;51.906;8.404;2023-04-25T18:09:04;11.70;97.20
1411;DHT22;700;51.906;8.404;2023-04-25T18:14:15;11.50;97.90
1411;DHT22;700;51.906;8.404;2023-04-25T18:19:16;11.50;97.80
1411;DHT22;700;51.906;8.404;2023-04-25T18:24:23;11.40;98.70
1411;DHT22;700;51.906;8.404;2023-04-25T18:29:26;11.20;98.80
1411;DHT22;700;51.906;8.404;2023-04-25T18:34:27;10.90;99.70
1411;DHT22;700;51.906;8.404;2023-04-25T18:39:28;10.60;99.80
1411;DHT22;700;51.906;8.404;2023-04-25T18:44:31;10.60;99.90
1411;DHT22;700;51.906;8.404;2023-04-25T18:49:33;10.50;99.90
1411;DHT22;700;51.906;8.404;2023-04-25T18:54:33;10.50;99.90
1411;DHT22;700;51.906;8.404;2023-04-25T18:59:39;10.50;99.90
1411;DHT22;700;51.906;8.404;2023-04-25T19:04:44;10.50;99.90
1411;DHT22;700;51.906;8.404;2023-04-25T19:09:46;10.70;99.90
1411;DHT22;700;51.906;8.404;2023-04-25T19:14:49;10.70;99.90
1411;DHT22;700;51.906;8.404;2023-04-25T19:19:50;10.60;99.90
1411;DHT22;700;51.906;8.404;2023-04-25T19:24:53;10.50;99.90
1411;DHT22;700;51.906;8.404;2023-04-25T19:29:53;10.60;99.90
1411;DHT22;700;51.906;8.404;2023-04-25T19:35:01;10.60;99.90
1411;DHT22;700;51.906;8.404;2023-04-25T19:40:04;10.50;99.90
1411;DHT22;700;51.906;8.404;2023-04-25T19:45:07;10.30;99.90
1411;DHT22;700;51.906;8.404;2023-04-25T19:50:08;10.30;99.90
1411;DHT22;700;51.906;8.404;2023-04-25T19:55:09;10.20;99.90
1411;DHT22;700;51.906;8.404;2023-04-25T20:00:13;10.00;99.90
1411;DHT22;700;51.906;8.404;2023-04-25T20:05:17;9.90;99.90
1411;DHT22;700;51.906;8.404;2023-04-25T20:10:20;9.80;99.90
1411;DHT22;700;51.906;8.404;2023-04-25T20:15:21;9.90;99.90
1411;DHT22;700;51.906;8.404;2023-04-25T20:20:22;9.90;99.90
1411;DHT22;700;51.906;8.404;2023-04-25T20:25:23;9.90;99.90
1411;DHT22;700;51.906;8.404;2023-04-25T20:30:23;10.00;99.90
1411;DHT22;700;51.906;8.404;2023-04-25T20:35:26;10.10;99.90
1411;DHT22;700;51.906;8.404;2023-04-25T20:40:29;10.00;99.90
1411;DHT22;700;51.906;8.404;2023-04-25T20:45:32;10.10;99.90
1411;DHT22;700;51.906;8.404;2023-04-25T20:50:33;9.90;99.90
1411;DHT22;700;51.906;8.404;2023-04-25T20:55:34;9.80;99.90
1411;DHT22;700;51.906;8.404;2023-04-25T21:00:34;9.60;99.90
1411;DHT22;700;51.906;8.404;2023-04-25T21:05:35;9.40;99.90
1411;DHT22;700;51.906;8.404;2023-04-25T21:10:36;9.40;99.90
1411;DHT22;700;51.906;8.404;2023-04-25T21:15:39;9.20;99.90
1411;DHT22;700;51.906;8.404;2023-04-25T21:20:40;9.10;99.90
1411;DHT22;700;51.906;8.404;2023-04-25T21:25:42;8.90;99.90
1411;DHT22;700;51.906;8.404;2023-04-25T21:30:45;8.70;99.90
1411;DHT22;700;51.906;8.404;2023-04-25T21:35:46;8.60;99.90
1411;DHT22;700;51.906;8.404;2023-04-25T21:40:49;8.50;99.90
1411;DHT22;700;51.906;8.404;2023-04-25T21:45:50;8.50;99.90
1411;DHT22;700;51.906;8.404;2023-04-25T21:50:51;8.30;99.90
1411;DHT22;700;51.906;8.404;2023-04-25T21:55:52;8.30;99.90
1411;DHT22;700;51.906;8.404;2023-04-25T22:00:53;8.20;99.90
1411;DHT22;700;51.906;8.404;2023-04-25T22:05:56;8.10;99.90
1411;DHT22;700;51.906;8.404;2023-04-25T22:10:57;8.00;99.90
1411;DHT22;700;51.906;8.404;2023-04-25T22:16:00;7.90;99.90
1411;DHT22;700;51.906;8.404;2023-04-25T22:21:03;7.80;99.90
1411;DHT22;700;51.906;8.404;2023-04-25T22:26:06;7.80;99.90
1411;DHT22;700;51.906;8.404;2023-04-25T22:31:07;7.50;99.90
1411;DHT22;700;51.906;8.404;2023-04-25T22:36:08;7.50;99.90
1411;DHT22;700;51.906;8.404;2023-04-25T22:41:09;7.40;99.90
1411;DHT22;700;51.906;8.404;2023-04-25T22:46:16;7.40;99.90
1411;DHT22;700;51.906;8.404;2023-04-25T22:51:21;7.30;99.90
1411;DHT22;700;51.906;8.404;2023-04-25T22:56:25;7.30;99.90
1411;DHT22;700;51.906;8.404;2023-04-25T23:01:26;7.30;99.90
1411;DHT22;700;51.906;8.404;2023-04-25T23:06:28;7.10;99.90
1411;DHT22;700;51.906;8.404;2023-04-25T23:11:29;7.10;99.90
1411;DHT22;700;51.906;8.404;2023-04-25T23:16:29;7.00;99.90
1411;DHT22;700;51.906;8.404;2023-04-25T23:21:33;7.00;99.90
1411;DHT22;700;51.906;8.404;2023-04-25T23:26:36;7.10;99.90
1411;DHT22;700;51.906;8.404;2023-04-25T23:31:39;7.10;99.90
1411;DHT22;700;51.906;8.404;2023-04-25T23:36:40;7.00;99.90
1411;DHT22;700;51.906;8.404;2023-04-25T23:41:40;6.90;99.90
1411;DHT22;700;51.906;8.404;2023-04-25T23:46:41;6.90;99.90
1411;DHT22;700;51.906;8.404;2023-04-25T23:51:42;6.90;99.90
1411;DHT22;700;51.906;8.404;2023-04-25T23:56:42;6.90;99.90
